Time,TemperatureF,DewpointF,PressureIn,WindDirection,WindDirectionDegrees,WindSpeedMPH,WindSpeedGustMPH,Humidity,HourlyPrecipIn,Conditions,Clouds,dailyrainin,SolarRadiationWatts/m^2,SoftwareType,DateUTC
2013-06-11 00:02:00,72.0,69.0,-100.00,NNE,32,0.0,0.0,91,0.00,,,-99.99,0.000000,,2013-06-11 05:02:00,
2013-06-11 00:22:00,72.0,69.0,-100.00,NNE,32,0.0,0.0,91,0.00,,,-99.99,0.000000,,2013-06-11 05:22:00,
2013-06-11 00:32:00,72.0,69.0,-100.00,NNE,32,0.0,0.0,91,0.00,,,-99.99,0.000000,,2013-06-11 05:32:00,
2013-06-11 00:42:00,72.0,69.0,-100.00,NNE,32,0.0,0.0,91,0.00,,,-99.99,0.000000,,2013-06-11 05:42:00,
2013-06-11 00:52:00,72.0,69.0,-100.00,NNE,32,0.0,0.0,91,0.00,,,-99.99,0.000000,,2013-06-11 05:52:00,
2013-06-11 01:02:00,71.0,69.0,-100.00,East,88,0.0,0.0,92,0.00,,,0.00,0.000000,,2013-06-11 06:02:00,
2013-06-11 01:22:00,71.0,69.0,-100.00,East,88,0.0,0.0,92,0.00,,,0.00,0.000000,,2013-06-11 06:22:00,
2013-06-11 01:32:00,71.0,69.0,-100.00,East,88,0.0,0.0,92,0.00,,,0.00,0.000000,,2013-06-11 06:32:00,
2013-06-11 01:42:00,71.0,69.0,-100.00,East,88,0.0,0.0,92,0.00,,,0.00,0.000000,,2013-06-11 06:42:00,
2013-06-11 01:52:00,71.0,69.0,-100.00,East,88,0.0,0.0,92,0.00,,,0.00,0.000000,,2013-06-11 06:52:00,
2013-06-11 02:02:00,70.0,68.0,-100.00,NNE,31,0.0,0.0,92,0.00,,,0.00,0.000000,,2013-06-11 07:02:00,
2013-06-11 02:22:00,70.0,68.0,-100.00,NNE,31,0.0,0.0,92,0.00,,,0.00,0.000000,,2013-06-11 07:22:00,
2013-06-11 02:32:00,70.0,68.0,-100.00,NNE,31,0.0,0.0,92,0.00,,,0.00,0.000000,,2013-06-11 07:32:00,
2013-06-11 02:42:00,70.0,68.0,-100.00,NNE,31,0.0,0.0,92,0.00,,,0.00,0.000000,,2013-06-11 07:42:00,
2013-06-11 02:52:00,70.0,68.0,-100.00,NNE,31,0.0,0.0,92,0.00,,,0.00,0.000000,,2013-06-11 07:52:00,
2013-06-11 03:02:00,69.0,67.0,-100.00,NE,43,0.0,0.0,92,0.00,,,0.00,0.000000,,2013-06-11 08:02:00,
2013-06-11 03:22:00,69.0,67.0,-100.00,NE,43,0.0,0.0,92,0.00,,,0.00,0.000000,,2013-06-11 08:22:00,
2013-06-11 03:32:00,69.0,67.0,-100.00,NE,43,0.0,0.0,92,0.00,,,0.00,0.000000,,2013-06-11 08:32:00,
2013-06-11 03:42:00,69.0,67.0,-100.00,NE,43,0.0,0.0,92,0.00,,,0.00,0.000000,,2013-06-11 08:42:00,
2013-06-11 03:52:00,69.0,67.0,-100.00,NE,43,0.0,0.0,92,0.00,,,0.00,0.000000,,2013-06-11 08:52:00,
2013-06-11 04:02:00,68.0,66.0,-100.00,North,350,0.0,0.0,92,0.00,,,0.00,0.000000,,2013-06-11 09:02:00,
2013-06-11 04:22:00,68.0,66.0,-100.00,North,350,0.0,0.0,92,0.00,,,0.00,0.000000,,2013-06-11 09:22:00,
2013-06-11 04:33:00,68.0,66.0,-100.00,North,350,0.0,0.0,92,0.00,,,0.00,0.000000,,2013-06-11 09:33:00,
2013-06-11 04:43:00,68.0,66.0,-100.00,North,350,0.0,0.0,92,0.00,,,0.00,0.000000,,2013-06-11 09:43:00,
2013-06-11 04:53:00,68.0,66.0,-100.00,North,350,0.0,0.0,92,0.00,,,0.00,0.000000,,2013-06-11 09:53:00,
2013-06-11 05:02:00,67.0,65.0,-100.00,ESE,119,0.0,0.0,92,0.00,,,0.00,0.000000,,2013-06-11 10:02:00,
2013-06-11 05:23:00,67.0,65.0,-100.00,ESE,119,0.0,0.0,92,0.00,,,0.00,0.000000,,2013-06-11 10:23:00,
2013-06-11 05:33:00,67.0,65.0,-100.00,ESE,119,0.0,0.0,92,0.00,,,0.00,0.000000,,2013-06-11 10:33:00,
2013-06-11 05:43:00,67.0,65.0,-100.00,ESE,119,0.0,0.0,92,0.00,,,0.00,0.000000,,2013-06-11 10:43:00,
2013-06-11 05:52:00,67.0,65.0,-100.00,ESE,119,0.0,0.0,92,0.00,,,0.00,0.000000,,2013-06-11 10:52:00,
2013-06-11 06:02:00,66.0,64.0,-100.00,West,270,0.0,0.0,92,0.00,,,-99.99,0.000000,,2013-06-11 11:02:00,
2013-06-11 06:22:00,66.0,64.0,-100.00,West,270,0.0,0.0,92,0.00,,,-99.99,0.000000,,2013-06-11 11:22:00,
2013-06-11 06:32:00,66.0,64.0,-100.00,West,270,0.0,0.0,92,0.00,,,-99.99,0.000000,,2013-06-11 11:32:00,
2013-06-11 06:42:00,66.0,64.0,-100.00,West,270,0.0,0.0,92,0.00,,,-99.99,0.000000,,2013-06-11 11:42:00,
2013-06-11 06:52:00,66.0,64.0,-100.00,West,270,0.0,0.0,92,0.00,,,-99.99,0.000000,,2013-06-11 11:52:00,
2013-06-11 07:02:00,69.0,66.0,-100.00,East,94,0.0,2.0,91,0.00,,,-99.99,38.000000,,2013-06-11 12:02:00,
2013-06-11 07:22:00,69.0,66.0,-100.00,East,94,0.0,2.0,91,0.00,,,-99.99,38.000000,,2013-06-11 12:22:00,
2013-06-11 07:32:00,69.0,66.0,-100.00,East,94,0.0,2.0,91,0.00,,,-99.99,38.000000,,2013-06-11 12:32:00,
2013-06-11 07:42:00,69.0,66.0,-100.00,East,94,0.0,2.0,91,0.00,,,-99.99,38.000000,,2013-06-11 12:42:00,
2013-06-11 07:52:00,69.0,66.0,-100.00,East,94,0.0,2.0,91,0.00,,,-99.99,38.000000,,2013-06-11 12:52:00,
2013-06-11 08:02:00,75.0,69.0,-100.00,NE,47,3.0,4.0,82,0.00,,,-99.99,221.000000,,2013-06-11 13:02:00,
2013-06-11 08:22:00,75.0,69.0,-100.00,NE,47,3.0,4.0,82,0.00,,,-99.99,221.000000,,2013-06-11 13:22:00,
2013-06-11 08:32:00,75.0,69.0,-100.00,NE,47,3.0,4.0,82,0.00,,,-99.99,221.000000,,2013-06-11 13:32:00,
2013-06-11 08:42:00,75.0,69.0,-100.00,NE,47,3.0,4.0,82,0.00,,,-99.99,221.000000,,2013-06-11 13:42:00,
2013-06-11 08:52:00,75.0,69.0,-100.00,NE,47,3.0,4.0,82,0.00,,,-99.99,221.000000,,2013-06-11 13:52:00,
2013-06-11 09:02:00,81.0,73.0,-100.00,SSW,203,3.0,7.0,76,0.00,,,0.00,439.000000,,2013-06-11 14:02:00,
2013-06-11 09:22:00,81.0,73.0,-100.00,SSW,203,3.0,7.0,76,0.00,,,0.00,439.000000,,2013-06-11 14:22:00,
2013-06-11 09:32:00,81.0,73.0,-100.00,SSW,203,3.0,7.0,76,0.00,,,0.00,439.000000,,2013-06-11 14:32:00,
2013-06-11 09:42:00,81.0,73.0,-100.00,SSW,203,3.0,7.0,76,0.00,,,0.00,439.000000,,2013-06-11 14:42:00,
2013-06-11 09:53:00,81.0,73.0,-100.00,SSW,203,3.0,7.0,76,0.00,,,0.00,439.000000,,2013-06-11 14:53:00,
2013-06-11 10:02:00,84.0,74.0,-100.00,WSW,244,5.0,9.0,71,0.00,,,0.00,638.000000,,2013-06-11 15:02:00,
2013-06-11 10:22:00,84.0,74.0,-100.00,WSW,244,5.0,9.0,71,0.00,,,0.00,638.000000,,2013-06-11 15:22:00,
2013-06-11 10:33:00,84.0,74.0,-100.00,WSW,244,5.0,9.0,71,0.00,,,0.00,638.000000,,2013-06-11 15:33:00,
2013-06-11 10:43:00,84.0,74.0,-100.00,WSW,244,5.0,9.0,71,0.00,,,0.00,638.000000,,2013-06-11 15:43:00,
2013-06-11 10:53:00,84.0,74.0,-100.00,WSW,244,5.0,9.0,71,0.00,,,0.00,638.000000,,2013-06-11 15:53:00,
2013-06-11 12:02:00,89.0,74.0,-100.00,SSW,203,5.0,10.0,62,-99.99,,,0.00,994.000000,,2013-06-11 17:02:00,
2013-06-11 12:22:00,89.0,74.0,-100.00,SSW,203,5.0,10.0,62,-99.99,,,0.00,994.000000,,2013-06-11 17:22:00,
2013-06-11 12:32:00,89.0,74.0,-100.00,SSW,203,5.0,10.0,62,-99.99,,,0.00,994.000000,,2013-06-11 17:32:00,
2013-06-11 12:43:00,89.0,74.0,-100.00,SSW,203,5.0,10.0,62,-99.99,,,0.00,994.000000,,2013-06-11 17:43:00,
2013-06-11 12:52:00,89.0,74.0,-100.00,SSW,203,5.0,10.0,62,-99.99,,,0.00,994.000000,,2013-06-11 17:52:00,
2013-06-11 13:02:00,91.0,73.0,-100.00,South,183,4.0,12.0,55,0.00,,,0.00,1064.000000,,2013-06-11 18:02:00,
2013-06-11 13:22:00,91.0,73.0,-100.00,South,183,4.0,12.0,55,0.00,,,0.00,1064.000000,,2013-06-11 18:22:00,
2013-06-11 13:33:00,91.0,73.0,-100.00,South,183,4.0,12.0,55,0.00,,,0.00,1064.000000,,2013-06-11 18:33:00,
2013-06-11 13:43:00,91.0,73.0,-100.00,South,183,4.0,12.0,55,0.00,,,0.00,1064.000000,,2013-06-11 18:43:00,
2013-06-11 13:52:00,91.0,73.0,-100.00,South,183,4.0,12.0,55,0.00,,,0.00,1064.000000,,2013-06-11 18:52:00,
2013-06-11 14:02:00,92.0,72.0,-100.00,South,186,5.0,10.0,52,0.00,,,0.00,1053.000000,,2013-06-11 19:02:00,
2013-06-11 14:22:00,92.0,72.0,-100.00,South,186,5.0,10.0,52,0.00,,,0.00,1053.000000,,2013-06-11 19:22:00,
2013-06-11 14:33:00,92.0,72.0,-100.00,South,186,5.0,10.0,52,0.00,,,0.00,1053.000000,,2013-06-11 19:33:00,
2013-06-11 14:42:00,92.0,72.0,-100.00,South,186,5.0,10.0,52,0.00,,,0.00,1053.000000,,2013-06-11 19:42:00,
2013-06-11 14:53:00,92.0,72.0,-100.00,South,186,5.0,10.0,52,0.00,,,0.00,1053.000000,,2013-06-11 19:53:00,
2013-06-11 15:02:00,93.0,70.0,-100.00,SSW,211,5.0,10.0,48,0.00,,,0.00,1056.000000,,2013-06-11 20:02:00,
2013-06-11 15:22:00,93.0,70.0,-100.00,SSW,211,5.0,10.0,48,0.00,,,0.00,1056.000000,,2013-06-11 20:22:00,
2013-06-11 15:32:00,93.0,70.0,-100.00,SSW,211,5.0,10.0,48,0.00,,,0.00,1056.000000,,2013-06-11 20:32:00,
2013-06-11 15:42:00,93.0,70.0,-100.00,SSW,211,5.0,10.0,48,0.00,,,0.00,1056.000000,,2013-06-11 20:42:00,
2013-06-11 15:52:00,93.0,70.0,-100.00,SSW,211,5.0,10.0,48,0.00,,,0.00,1056.000000,,2013-06-11 20:52:00,
2013-06-11 16:02:00,93.0,73.0,-100.00,South,175,4.0,10.0,53,0.00,,,0.00,920.000000,,2013-06-11 21:02:00,
2013-06-11 16:22:00,93.0,73.0,-100.00,South,175,4.0,10.0,53,0.00,,,0.00,920.000000,,2013-06-11 21:22:00,
2013-06-11 16:33:00,93.0,73.0,-100.00,South,175,4.0,10.0,53,0.00,,,0.00,920.000000,,2013-06-11 21:33:00,
2013-06-11 16:42:00,93.0,73.0,-100.00,South,175,4.0,10.0,53,0.00,,,0.00,920.000000,,2013-06-11 21:42:00,
2013-06-11 16:53:00,93.0,73.0,-100.00,South,175,4.0,10.0,53,0.00,,,0.00,920.000000,,2013-06-11 21:53:00,
2013-06-11 17:02:00,93.0,71.0,-100.00,SW,222,5.0,10.0,49,0.00,,,0.00,687.000000,,2013-06-11 22:02:00,
2013-06-11 17:22:00,93.0,71.0,-100.00,SW,222,5.0,10.0,49,0.00,,,0.00,687.000000,,2013-06-11 22:22:00,
2013-06-11 17:33:00,93.0,71.0,-100.00,SW,222,5.0,10.0,49,0.00,,,0.00,687.000000,,2013-06-11 22:33:00,
2013-06-11 17:42:00,93.0,71.0,-100.00,SW,222,5.0,10.0,49,0.00,,,0.00,687.000000,,2013-06-11 22:42:00,
2013-06-11 17:52:00,93.0,71.0,-100.00,SW,222,5.0,10.0,49,0.00,,,0.00,687.000000,,2013-06-11 22:52:00,
2013-06-11 18:02:00,92.0,71.0,-100.00,SSE,164,6.0,13.0,51,0.00,,,0.00,597.000000,,2013-06-11 23:02:00,
2013-06-11 18:22:00,92.0,71.0,-100.00,SSE,164,6.0,13.0,51,0.00,,,0.00,597.000000,,2013-06-11 23:22:00,
2013-06-11 18:32:00,92.0,71.0,-100.00,SSE,164,6.0,13.0,51,0.00,,,0.00,597.000000,,2013-06-11 23:32:00,
2013-06-11 18:42:00,92.0,71.0,-100.00,SSE,164,6.0,13.0,51,0.00,,,0.00,597.000000,,2013-06-11 23:42:00,
2013-06-11 18:52:00,92.0,71.0,-100.00,SSE,164,6.0,13.0,51,0.00,,,0.00,597.000000,,2013-06-11 23:52:00,
2013-06-11 19:02:00,91.0,71.0,-100.00,South,191,4.0,9.0,52,0.00,,,0.00,310.000000,,2013-06-12 00:02:00,
2013-06-11 19:22:00,91.0,71.0,-100.00,South,191,4.0,9.0,52,0.00,,,0.00,310.000000,,2013-06-12 00:22:00,
2013-06-11 19:32:00,91.0,71.0,-100.00,South,191,4.0,9.0,52,0.00,,,0.00,310.000000,,2013-06-12 00:32:00,
2013-06-11 19:42:00,91.0,71.0,-100.00,South,191,4.0,9.0,52,0.00,,,0.00,310.000000,,2013-06-12 00:42:00,
2013-06-11 19:52:00,91.0,71.0,-100.00,South,191,4.0,9.0,52,0.00,,,0.00,310.000000,,2013-06-12 00:52:00,
2013-06-11 20:02:00,87.0,73.0,-100.00,SSE,151,2.0,6.0,64,0.00,,,0.00,122.000000,,2013-06-12 01:02:00,
2013-06-11 20:22:00,87.0,73.0,-100.00,SSE,151,2.0,6.0,64,0.00,,,0.00,122.000000,,2013-06-12 01:22:00,
2013-06-11 20:32:00,87.0,73.0,-100.00,SSE,151,2.0,6.0,64,0.00,,,0.00,122.000000,,2013-06-12 01:32:00,
2013-06-11 20:42:00,87.0,73.0,-100.00,SSE,151,2.0,6.0,64,0.00,,,0.00,122.000000,,2013-06-12 01:42:00,
2013-06-11 20:52:00,87.0,73.0,-100.00,SSE,151,2.0,6.0,64,0.00,,,0.00,122.000000,,2013-06-12 01:52:00,
2013-06-11 21:02:00,80.0,74.0,-100.00,East,95,1.0,5.0,82,0.00,,,0.00,8.000000,,2013-06-12 02:02:00,
2013-06-11 21:22:00,80.0,74.0,-100.00,East,95,1.0,5.0,82,0.00,,,0.00,8.000000,,2013-06-12 02:22:00,
2013-06-11 21:32:00,80.0,74.0,-100.00,East,95,1.0,5.0,82,0.00,,,0.00,8.000000,,2013-06-12 02:32:00,
2013-06-11 21:42:00,80.0,74.0,-100.00,East,95,1.0,5.0,82,0.00,,,0.00,8.000000,,2013-06-12 02:42:00,
2013-06-11 21:52:00,80.0,74.0,-100.00,East,95,1.0,5.0,82,0.00,,,0.00,8.000000,,2013-06-12 02:52:00,
2013-06-11 22:02:00,78.0,73.0,-100.00,ENE,78,1.0,2.0,86,0.00,,,0.00,0.000000,,2013-06-12 03:02:00,
2013-06-11 22:22:00,78.0,73.0,-100.00,ENE,78,1.0,2.0,86,0.00,,,0.00,0.000000,,2013-06-12 03:22:00,
2013-06-11 22:33:00,78.0,73.0,-100.00,ENE,78,1.0,2.0,86,0.00,,,0.00,0.000000,,2013-06-12 03:33:00,
2013-06-11 22:43:00,78.0,73.0,-100.00,ENE,78,1.0,2.0,86,0.00,,,0.00,0.000000,,2013-06-12 03:43:00,
2013-06-11 22:53:00,78.0,73.0,-100.00,ENE,78,1.0,2.0,86,0.00,,,0.00,0.000000,,2013-06-12 03:53:00,
2013-06-11 23:02:00,76.0,73.0,-100.00,East,90,1.0,2.0,89,0.00,,,0.00,0.000000,,2013-06-12 04:02:00,
2013-06-11 23:23:00,76.0,73.0,-100.00,East,90,1.0,2.0,89,0.00,,,0.00,0.000000,,2013-06-12 04:23:00,
2013-06-11 23:34:00,76.0,73.0,-100.00,East,90,1.0,2.0,89,0.00,,,0.00,0.000000,,2013-06-12 04:34:00,
2013-06-11 23:42:00,76.0,73.0,-100.00,East,90,1.0,2.0,89,0.00,,,0.00,0.000000,,2013-06-12 04:42:00,
2013-06-11 23:52:00,76.0,73.0,-100.00,East,90,1.0,2.0,89,0.00,,,0.00,0.000000,,2013-06-12 04:52:00,